createdAt,value
2022-12-13T00:00:02.472Z,95.26
2022-12-13T00:04:54.107Z,95.86
2022-12-13T00:09:46.043Z,96.01
2022-12-13T00:14:39.224Z,95.98
2022-12-13T00:19:30.926Z,96.12
2022-12-13T00:29:14.696Z,96.77
2022-12-13T00:34:06.400Z,97.39
2022-12-13T00:39:01.780Z,97.49
2022-12-13T00:43:53.790Z,97.42
2022-12-13T00:48:50.638Z,97.67
2022-12-13T00:53:42.670Z,97.89
2022-12-13T00:58:35.641Z,97.81
2022-12-13T01:03:27.524Z,98.12
2022-12-13T01:08:19.388Z,98.30
2022-12-13T01:13:11.421Z,98.71
2022-12-13T01:18:03.144Z,99.26
2022-12-13T01:22:54.910Z,99.42
2022-12-13T01:27:46.603Z,99.58
2022-12-13T01:32:38.545Z,99.86
2022-12-13T01:37:30.596Z,100.00
2022-12-13T01:42:22.285Z,100.00
2022-12-13T01:47:19.190Z,100.00
2022-12-13T01:52:14.454Z,100.00
2022-12-13T01:57:10.796Z,100.00
2022-12-13T02:02:03.030Z,100.00
2022-12-13T02:06:57.378Z,100.00
2022-12-13T02:11:49.860Z,100.00
2022-12-13T02:16:57.210Z,100.00
2022-12-13T02:21:51.946Z,100.00
2022-12-13T02:26:56.074Z,100.00
2022-12-13T02:32:00.515Z,100.00
2022-12-13T02:37:18.662Z,100.00
2022-12-13T02:42:25.687Z,100.00
2022-12-13T02:47:25.898Z,100.00
2022-12-13T02:52:22.495Z,100.00
2022-12-13T02:57:31.254Z,100.00
2022-12-13T03:02:43.252Z,100.00
2022-12-13T03:07:55.765Z,100.00
2022-12-13T03:13:38.148Z,100.00
2022-12-13T03:18:33.082Z,100.00
2022-12-13T03:23:25.955Z,100.00
2022-12-13T03:28:18.030Z,100.00
2022-12-13T03:33:09.965Z,100.00
2022-12-13T03:38:02.161Z,100.00
2022-12-13T03:42:53.859Z,100.00
2022-12-13T03:47:45.573Z,100.00
2022-12-13T03:52:37.268Z,100.00
2022-12-13T03:57:29.431Z,100.00
2022-12-13T04:02:30.739Z,100.00
2022-12-13T04:07:23.496Z,100.00
2022-12-13T04:12:33.704Z,100.00
2022-12-13T04:17:25.391Z,100.00
2022-12-13T04:22:23.284Z,99.95
2022-12-13T04:27:16.663Z,100.00
2022-12-13T04:32:26.503Z,99.59
2022-12-13T04:37:19.042Z,99.75
2022-12-13T04:42:11.803Z,99.81
2022-12-13T04:47:03.723Z,99.78
2022-12-13T04:52:00.509Z,99.64
2022-12-13T04:56:53.139Z,99.64
2022-12-13T05:01:45.071Z,99.64
2022-12-13T05:06:36.895Z,99.05
2022-12-13T05:11:35.921Z,99.20
2022-12-13T05:16:27.964Z,99.06
2022-12-13T05:21:19.781Z,99.20
2022-12-13T05:26:11.486Z,98.89
2022-12-13T05:31:23.638Z,98.88
2022-12-13T05:36:15.860Z,98.48
2022-12-13T05:41:13.711Z,98.39
2022-12-13T05:46:05.895Z,97.97
2022-12-13T05:51:09.909Z,97.77
2022-12-13T05:56:03.599Z,97.90
2022-12-13T06:00:55.529Z,97.71
2022-12-13T06:05:47.423Z,97.78
2022-12-13T06:10:39.279Z,97.89
2022-12-13T06:15:34.558Z,97.54
2022-12-13T06:20:27.139Z,98.00
2022-12-13T06:25:30.694Z,97.40
2022-12-13T06:30:23.818Z,96.96
2022-12-13T06:35:27.909Z,96.84
2022-12-13T06:40:23.207Z,97.13
2022-12-13T06:45:15.385Z,97.45
2022-12-13T06:50:07.770Z,96.98
2022-12-13T06:55:00.071Z,97.24
2022-12-13T06:59:52.166Z,97.18
2022-12-13T07:04:44.395Z,97.49
2022-12-13T07:09:36.816Z,97.28
2022-12-13T07:14:28.636Z,97.85
2022-12-13T07:19:24.031Z,96.96
2022-12-13T07:24:16.416Z,97.20
2022-12-13T07:29:08.190Z,97.36
2022-12-13T07:34:00.395Z,98.00
2022-12-13T07:38:57.157Z,97.09
2022-12-13T07:43:48.936Z,97.68
2022-12-13T07:48:47.181Z,97.60
2022-12-13T07:53:39.957Z,97.48
2022-12-13T07:58:33.538Z,97.18
2022-12-13T08:03:26.593Z,96.94
2022-12-13T08:08:21.183Z,96.81
2022-12-13T08:13:12.889Z,97.52
2022-12-13T08:18:05.297Z,97.13
2022-12-13T08:23:01.754Z,97.59
2022-12-13T08:27:54.169Z,97.46
2022-12-13T08:32:53.408Z,97.10
2022-12-13T08:37:45.128Z,97.03
2022-12-13T08:42:37.239Z,97.41
2022-12-13T08:47:29.011Z,97.34
2022-12-13T08:52:22.867Z,97.03
2022-12-13T08:57:14.921Z,96.57
2022-12-13T09:02:06.742Z,96.98
2022-12-13T09:06:58.534Z,97.24
2022-12-13T09:11:53.556Z,96.93
2022-12-13T09:16:51.857Z,97.22
2022-12-13T09:21:43.727Z,97.18
2022-12-13T09:26:38.463Z,97.43
2022-12-13T09:31:30.496Z,96.64
2022-12-13T09:36:22.687Z,96.99
2022-12-13T09:41:34.467Z,97.21
2022-12-13T09:46:45.158Z,96.87
2022-12-13T09:51:41.470Z,96.73
2022-12-13T09:56:35.601Z,97.23
2022-12-13T10:01:27.723Z,97.23
2022-12-13T10:06:24.357Z,96.90
2022-12-13T10:11:18.004Z,96.64
2022-12-13T10:16:23.590Z,96.17
2022-12-13T10:21:22.709Z,96.21
2022-12-13T10:26:24.178Z,96.09
2022-12-13T10:31:20.706Z,96.47
2022-12-13T10:36:30.012Z,96.10
2022-12-13T10:41:37.055Z,95.72
2022-12-13T10:46:31.264Z,95.39
2022-12-13T10:51:38.743Z,95.38
2022-12-13T10:56:37.626Z,95.09
2022-12-13T11:01:29.499Z,94.54
2022-12-13T11:06:21.385Z,94.55
2022-12-13T11:11:18.690Z,95.16
2022-12-13T11:16:34.205Z,94.64
2022-12-13T11:21:31.059Z,95.20
2022-12-13T11:26:25.461Z,94.27
2022-12-13T11:31:41.641Z,93.85
2022-12-13T11:36:36.427Z,93.42
2022-12-13T11:41:34.656Z,93.15
2022-12-13T11:46:40.324Z,93.29
2022-12-13T11:51:43.264Z,93.31
2022-12-13T11:56:40.317Z,93.12
2022-12-13T12:01:44.119Z,92.84
2022-12-13T12:06:45.482Z,92.54
2022-12-13T12:11:37.063Z,92.86
2022-12-13T12:16:40.726Z,92.98
2022-12-13T12:22:12.174Z,91.71
2022-12-13T12:26:49.997Z,91.67
2022-12-13T12:32:14.050Z,91.44
2022-12-13T12:37:42.977Z,90.86
2022-12-13T12:43:14.454Z,90.84
2022-12-13T12:53:48.228Z,90.02
2022-12-13T12:58:51.437Z,90.10
2022-12-13T13:03:44.987Z,89.22
2022-12-13T13:08:59.410Z,89.19
2022-12-13T13:14:35.199Z,89.36
2022-12-13T13:19:32.761Z,89.55
2022-12-13T13:24:32.593Z,88.59
2022-12-13T13:29:27.324Z,88.11
2022-12-13T13:34:29.329Z,86.88
2022-12-13T13:39:56.285Z,86.94
2022-12-13T13:44:51.478Z,86.96
2022-12-13T13:50:27.725Z,86.09
2022-12-13T13:55:22.589Z,84.95
2022-12-13T14:00:19.160Z,84.93
2022-12-13T14:05:30.134Z,85.67
2022-12-13T14:10:52.392Z,84.93
2022-12-13T14:16:20.188Z,84.83
2022-12-13T14:21:15.284Z,84.86
2022-12-13T14:26:34.236Z,84.76
2022-12-13T14:31:39.589Z,83.98
2022-12-13T14:36:35.375Z,84.44
2022-12-13T14:41:27.145Z,84.37
2022-12-13T14:46:19.384Z,84.64
2022-12-13T14:51:38.557Z,84.37
2022-12-13T14:56:30.626Z,83.60
2022-12-13T15:01:25.490Z,83.58
2022-12-13T15:06:22.207Z,83.49
2022-12-13T15:11:14.651Z,83.99
2022-12-13T15:16:11.420Z,83.74
2022-12-13T15:21:03.323Z,83.33
2022-12-13T15:26:28.101Z,84.13
2022-12-13T15:31:22.373Z,84.11
2022-12-13T15:36:19.966Z,84.69
2022-12-13T15:41:18.477Z,84.94
2022-12-13T15:46:10.522Z,84.60
2022-12-13T15:51:29.435Z,85.43
2022-12-13T15:57:04.548Z,85.69
2022-12-13T16:01:58.703Z,86.21
2022-12-13T16:06:55.758Z,86.46
2022-12-13T16:11:53.599Z,86.38
2022-12-13T16:16:45.425Z,86.37
2022-12-13T16:21:37.035Z,86.65
2022-12-13T16:26:29.366Z,86.79
2022-12-13T16:31:25.819Z,87.01
2022-12-13T16:36:18.160Z,87.16
2022-12-13T16:41:10.395Z,87.39
2022-12-13T16:47:10.309Z,87.57
2022-12-13T16:51:16.642Z,88.10
2022-12-13T16:56:11.478Z,88.19
2022-12-13T17:01:15.046Z,88.43
2022-12-13T17:06:09.963Z,88.18
2022-12-13T17:11:01.724Z,88.83
2022-12-13T17:15:59.747Z,88.80
2022-12-13T17:20:58.148Z,89.48
2022-12-13T17:25:58.722Z,89.32
2022-12-13T17:30:54.449Z,89.90
2022-12-13T17:35:47.345Z,89.72
2022-12-13T17:40:39.212Z,89.83
2022-12-13T17:45:30.931Z,90.55
2022-12-13T17:50:22.630Z,90.81
2022-12-13T17:55:18.334Z,90.41
2022-12-13T18:00:11.027Z,90.61
2022-12-13T18:05:02.823Z,90.96
2022-12-13T18:09:54.527Z,90.90
2022-12-13T18:14:46.220Z,91.56
2022-12-13T18:19:37.909Z,91.75
2022-12-13T18:24:29.605Z,91.84
2022-12-13T18:29:21.792Z,92.51
2022-12-13T18:34:13.582Z,93.00
2022-12-13T18:39:05.613Z,92.58
2022-12-13T18:44:00.422Z,93.05
2022-12-13T18:48:52.180Z,93.59
2022-12-13T18:53:43.992Z,94.02
2022-12-13T18:58:36.587Z,93.80
2022-12-13T19:03:28.716Z,93.80
2022-12-13T19:08:26.372Z,94.63
2022-12-13T19:13:18.321Z,94.24
2022-12-13T19:18:10.864Z,94.61
2022-12-13T19:23:02.647Z,94.42
2022-12-13T19:27:56.922Z,94.82
2022-12-13T19:32:48.744Z,94.56
2022-12-13T19:37:40.600Z,94.72
2022-12-13T19:42:32.404Z,94.98
2022-12-13T19:47:24.189Z,95.11
2022-12-13T19:52:15.828Z,95.28
2022-12-13T19:57:08.051Z,95.56
2022-12-13T20:02:00.184Z,96.11
2022-12-13T20:06:51.975Z,96.24
2022-12-13T20:11:43.666Z,96.51
2022-12-13T20:16:35.389Z,96.19
2022-12-13T20:21:28.773Z,96.96
2022-12-13T20:26:23.271Z,97.21
2022-12-13T20:31:18.606Z,96.97
2022-12-13T20:36:24.747Z,97.33
2022-12-13T20:41:17.445Z,97.42
2022-12-13T20:46:11.809Z,97.57
2022-12-13T20:51:06.006Z,97.57
2022-12-13T20:55:58.095Z,98.05
2022-12-13T21:00:49.951Z,97.80
2022-12-13T21:05:44.613Z,97.63
2022-12-13T21:10:36.338Z,97.70
2022-12-13T21:15:28.148Z,96.82
2022-12-13T21:20:20.120Z,97.01
2022-12-13T21:25:11.834Z,97.09
2022-12-13T21:30:04.002Z,96.94
2022-12-13T21:34:55.692Z,96.70
2022-12-13T21:39:47.421Z,96.68
2022-12-13T21:44:39.099Z,97.26
2022-12-13T21:49:30.976Z,97.04
2022-12-13T21:54:22.932Z,97.20
2022-12-13T21:59:16.399Z,97.31
2022-12-13T22:04:08.114Z,97.20
2022-12-13T22:08:59.923Z,97.90
2022-12-13T22:13:51.524Z,97.07
2022-12-13T22:18:43.259Z,96.88
2022-12-13T22:23:34.956Z,96.43
2022-12-13T22:28:29.701Z,95.73
2022-12-13T22:33:21.597Z,94.77
2022-12-13T22:38:13.475Z,94.49
2022-12-13T22:43:05.202Z,93.43
2022-12-13T22:47:56.916Z,92.75
2022-12-13T22:52:48.592Z,92.94
2022-12-13T22:57:40.460Z,92.93
2022-12-13T23:02:32.184Z,93.48
2022-12-13T23:07:24.051Z,93.40
2022-12-13T23:12:34.866Z,93.39
2022-12-13T23:17:26.716Z,94.09
2022-12-13T23:22:22.594Z,93.80
2022-12-13T23:27:14.520Z,93.99
2022-12-13T23:32:06.391Z,93.98
2022-12-13T23:36:58.371Z,94.63
2022-12-13T23:41:50.287Z,94.99
2022-12-13T23:46:42.193Z,94.81
2022-12-13T23:51:40.999Z,94.84
2022-12-13T23:56:32.681Z,95.04
